Time;durP1;ratioP1;P1;durP2;ratioP2;P2;SDS_P1;SDS_P2;PMS_P1;PMS_P2;Temp;Humidity;BMP_temperature;BMP_pressure;BME280_temperature;BME280_humidity;BME280_pressure;Samples;Min_cycle;Max_cycle;Signal;HPM_P1;HPM_P2
2022/11/30 00:01:57;;;;;;;30.30;17.90;;;;;;;1.28;80.71;101656.98;100284;1291;88389;-56
2022/11/30 00:04:29;;;;;;;30.10;18.80;;;;;;;1.29;80.59;101652.14;100259;1296;79849;-55
2022/11/30 00:06:58;;;;;;;38.60;20.20;;;;;;;1.30;80.74;101654.58;100301;1300;97913;-59
2022/11/30 00:09:31;;;;;;;63.10;28.70;;;;;;;1.29;80.68;101654.82;100316;1291;94727;-58
2022/11/30 00:12:01;;;;;;;36.50;20.60;;;;;;;1.24;80.62;101654.97;100291;1298;81323;-56
2022/11/30 00:14:29;;;;;;;55.50;27.00;;;;;;;1.12;80.47;101653.23;100240;1300;88888;-56
2022/11/30 00:16:59;;;;;;;29.70;19.70;;;;;;;1.09;80.42;101653.06;100232;1299;81218;-58
2022/11/30 00:19:31;;;;;;;41.10;22.80;;;;;;;1.07;80.52;101656.05;100240;1299;99704;-58
2022/11/30 00:22:03;;;;;;;31.70;18.50;;;;;;;1.06;80.61;101654.31;100212;1299;94337;-58
2022/11/30 00:24:35;;;;;;;36.10;20.60;;;;;;;1.08;80.77;101650.52;100259;1297;80836;-58
2022/11/30 00:27:06;;;;;;;34.20;19.10;;;;;;;1.08;80.62;101651.55;100216;1297;89300;-57
2022/11/30 00:29:36;;;;;;;27.60;17.00;;;;;;;1.06;80.68;101657.54;100237;1298;81125;-58
2022/11/30 00:32:09;;;;;;;27.50;16.70;;;;;;;1.08;80.67;101658.46;100238;1298;97887;-56
2022/11/30 00:34:38;;;;;;;32.30;16.70;;;;;;;1.08;80.78;101659.70;100223;1300;95310;-56
2022/11/30 00:37:10;;;;;;;32.20;18.30;;;;;;;1.02;80.60;101662.58;100245;1297;83282;-58
2022/11/30 00:39:42;;;;;;;48.30;23.70;;;;;;;1.04;80.75;101661.73;100284;1301;89322;-59
2022/11/30 00:42:13;;;;;;;36.40;20.30;;;;;;;1.04;80.80;101661.86;100274;1300;76792;-56
2022/11/30 00:44:45;;;;;;;31.80;18.70;;;;;;;1.10;80.79;101666.31;100284;1297;97476;-56
2022/11/30 00:47:16;;;;;;;25.50;16.40;;;;;;;1.12;80.63;101672.90;100246;1298;95303;-58
2022/11/30 00:49:50;;;;;;;27.60;17.30;;;;;;;1.10;80.46;101671.77;100160;1301;84123;-58
2022/11/30 00:52:19;;;;;;;33.30;18.60;;;;;;;1.07;80.54;101673.08;100284;1298;88717;-56
2022/11/30 00:54:50;;;;;;;26.10;15.50;;;;;;;1.04;80.49;101673.47;100268;1297;81578;-56
2022/11/30 00:57:20;;;;;;;36.60;19.40;;;;;;;0.99;80.64;101673.21;100256;1301;98668;-56
2022/11/30 00:59:53;;;;;;;27.80;17.90;;;;;;;0.99;80.67;101674.83;100247;1291;95707;-56
2022/11/30 01:02:25;;;;;;;25.30;16.30;;;;;;;1.01;80.71;101672.89;100266;1300;81539;-58
2022/11/30 01:04:57;;;;;;;24.50;16.00;;;;;;;1.02;80.72;101673.01;100244;1292;88667;-59
2022/11/30 01:07:32;;;;;;;47.10;22.90;;;;;;;1.03;80.88;101670.82;100239;1301;80105;-56
2022/11/30 01:10:03;;;;;;;25.70;16.50;;;;;;;1.06;80.86;101677.59;100211;1298;97480;-56
2022/11/30 01:12:33;;;;;;;23.50;15.20;;;;;;;1.06;80.81;101677.78;100244;1299;95493;-56
2022/11/30 01:15:02;;;;;;;24.00;14.40;;;;;;;1.07;80.88;101678.72;100261;1294;81907;-56
2022/11/30 01:17:32;;;;;;;26.00;16.60;;;;;;;1.07;80.89;101682.31;100222;1301;87453;-58
2022/11/30 01:20:04;;;;;;;25.10;15.30;;;;;;;1.15;80.78;101683.22;100237;1298;80316;-58
2022/11/30 01:22:35;;;;;;;24.30;15.80;;;;;;;1.15;80.66;101677.66;100292;1294;99309;-56
2022/11/30 01:25:10;;;;;;;26.80;16.40;;;;;;;1.10;80.70;101682.25;100288;1297;94911;-56
2022/11/30 01:27:41;;;;;;;24.60;14.80;;;;;;;1.10;80.73;101681.39;100262;1291;82078;-56
2022/11/30 01:30:14;;;;;;;28.90;18.30;;;;;;;1.05;80.74;101683.30;100231;1291;87881;-56
2022/11/30 01:32:43;;;;;;;27.60;16.70;;;;;;;1.04;80.82;101680.33;100250;1291;82099;-58
2022/11/30 01:35:14;;;;;;;22.60;14.80;;;;;;;1.02;80.77;101688.46;100244;1295;98734;-59
2022/11/30 01:37:45;;;;;;;27.90;15.70;;;;;;;0.96;80.87;101688.86;100219;1300;94431;-59
2022/11/30 01:40:18;;;;;;;30.20;17.40;;;;;;;0.98;80.88;101688.17;100253;1292;80471;-59
2022/11/30 01:42:51;;;;;;;27.10;17.40;;;;;;;1.02;80.91;101690.45;100226;1293;89286;-57
2022/11/30 01:45:21;;;;;;;27.30;17.00;;;;;;;1.06;80.82;101685.02;100217;1300;80021;-57
2022/11/30 01:47:59;;;;;;;25.50;15.60;;;;;;;1.05;80.87;101683.66;100236;1292;96763;-56
2022/11/30 01:50:38;;;;;;;24.60;15.50;;;;;;;1.09;80.95;101683.78;100218;1302;95536;-57
2022/11/30 01:53:11;;;;;;;24.40;15.70;;;;;;;1.12;80.85;101689.98;100257;1302;82639;-59
2022/11/30 01:55:47;;;;;;;24.90;15.70;;;;;;;1.13;80.77;101689.34;100240;1292;89192;-59
2022/11/30 01:58:24;;;;;;;26.40;15.80;;;;;;;1.13;80.73;101686.69;100222;1294;77515;-59
2022/11/30 02:00:59;;;;;;;26.20;16.50;;;;;;;1.11;80.74;101686.80;100259;1300;99309;-57
2022/11/30 02:03:36;;;;;;;26.90;15.60;;;;;;;1.12;80.76;101688.90;100227;1285;95290;-58
2022/11/30 02:06:10;;;;;;;25.10;15.90;;;;;;;1.11;80.79;101688.06;100228;1295;80955;-58
2022/11/30 02:08:39;;;;;;;27.20;16.00;;;;;;;1.06;80.70;101687.48;100266;1292;86286;-58
2022/11/30 02:11:15;;;;;;;27.90;16.80;;;;;;;1.02;80.78;101690.45;100290;1286;79558;-58
2022/11/30 02:14:01;;;;;;;26.00;15.60;;;;;;;1.00;80.72;101689.52;100281;1292;97270;-59
2022/11/30 02:16:49;;;;;;;25.20;15.70;;;;;;;0.98;80.75;101687.47;100266;1291;94288;-59
2022/11/30 02:20:06;;;;;;;28.20;16.30;;;;;;;0.99;80.77;101685.84;100277;1298;82286;-59
2022/11/30 02:22:58;;;;;;;27.40;15.30;;;;;;;1.02;80.86;101684.58;100178;1300;90273;-57
2022/11/30 02:25:45;;;;;;;25.70;15.60;;;;;;;1.01;80.85;101685.33;100224;1292;81369;-59
2022/11/30 02:28:45;;;;;;;28.80;17.10;;;;;;;1.04;80.77;101685.64;100208;1295;98644;-56
2022/11/30 02:31:23;;;;;;;28.30;17.30;;;;;;;1.09;80.87;101684.50;100218;1300;95498;-57
2022/11/30 02:33:58;;;;;;;23.70;14.90;;;;;;;1.12;80.83;101687.63;100222;1284;81143;-57
2022/11/30 02:36:28;;;;;;;26.20;16.20;;;;;;;1.12;80.66;101691.02;100227;1300;89207;-58
2022/11/30 02:39:00;;;;;;;27.10;16.40;;;;;;;1.13;80.80;101692.20;100255;1292;80364;-58
2022/11/30 02:41:41;;;;;;;25.50;15.90;;;;;;;1.16;80.73;101693.92;100272;1299;98712;-58
2022/11/30 02:44:15;;;;;;;23.50;15.10;;;;;;;1.15;80.85;101700.73;100218;1301;95219;-58
2022/11/30 02:47:16;;;;;;;25.10;16.20;;;;;;;1.11;80.82;101702.98;100243;1301;81399;-57
2022/11/30 02:50:01;;;;;;;27.60;16.00;;;;;;;1.14;80.66;101697.99;100238;1294;88788;-56
2022/11/30 02:52:34;;;;;;;28.40;17.40;;;;;;;1.13;80.82;101703.86;100261;1300;78656;-59
2022/11/30 02:55:15;;;;;;;29.30;17.30;;;;;;;1.11;80.83;101701.19;100248;1301;99083;-59
2022/11/30 02:57:48;;;;;;;24.80;16.30;;;;;;;1.11;80.74;101697.48;100238;1284;94229;-59
2022/11/30 03:00:20;;;;;;;28.50;16.60;;;;;;;1.08;80.70;101696.03;100302;1295;82501;-59
2022/11/30 03:02:52;;;;;;;25.90;16.40;;;;;;;1.11;80.77;101700.33;100304;1291;88221;-58
2022/11/30 03:05:21;;;;;;;29.70;17.10;;;;;;;1.11;80.83;101702.96;100255;1299;81440;-59
2022/11/30 03:07:51;;;;;;;25.50;16.50;;;;;;;1.12;80.94;101706.30;100243;1301;98385;-59
2022/11/30 03:10:25;;;;;;;25.70;16.60;;;;;;;1.10;80.87;101709.94;100227;1292;94780;-58
2022/11/30 03:12:57;;;;;;;27.80;17.20;;;;;;;1.10;80.88;101709.44;100242;1292;80907;-56
2022/11/30 03:15:28;;;;;;;30.30;17.00;;;;;;;1.12;81.06;101710.37;100219;1300;88479;-56
2022/11/30 03:18:03;;;;;;;32.50;18.70;;;;;;;1.12;80.93;101709.29;100242;1302;81016;-56
2022/11/30 03:20:32;;;;;;;29.40;17.80;;;;;;;1.13;80.84;101708.86;100232;1290;98968;-57
2022/11/30 03:23:04;;;;;;;28.90;17.60;;;;;;;1.17;81.00;101709.49;100243;1294;94930;-58
2022/11/30 03:25:39;;;;;;;35.50;21.30;;;;;;;1.17;80.90;101709.31;100237;1292;82979;-59
2022/11/30 03:28:11;;;;;;;29.10;18.30;;;;;;;1.19;80.90;101711.50;100229;1291;88026;-59
2022/11/30 03:30:48;;;;;;;44.00;24.40;;;;;;;1.16;80.85;101710.79;100244;1294;80621;-59
2022/11/30 03:33:20;;;;;;;27.50;16.60;;;;;;;1.13;80.93;101714.16;100247;1295;98351;-56
2022/11/30 03:35:49;;;;;;;31.30;18.50;;;;;;;1.08;80.85;101718.22;100225;1294;93371;-56
2022/11/30 03:38:23;;;;;;;29.60;18.50;;;;;;;1.05;81.02;101720.38;100213;1292;82528;-57
2022/11/30 03:40:59;;;;;;;28.90;17.30;;;;;;;1.04;80.92;101722.73;100220;1299;88754;-57
2022/11/30 03:43:28;;;;;;;35.00;20.30;;;;;;;1.05;81.04;101728.00;100258;1300;80140;-60
2022/11/30 03:45:58;;;;;;;31.50;18.30;;;;;;;1.06;80.98;101725.60;100279;1295;98337;-57
2022/11/30 03:48:28;;;;;;;32.90;19.10;;;;;;;1.12;80.98;101725.40;100254;1295;95175;-56
2022/11/30 03:50:59;;;;;;;39.40;22.70;;;;;;;1.16;80.94;101724.31;100266;1291;82554;-57
2022/11/30 03:53:31;;;;;;;32.10;17.90;;;;;;;1.18;81.09;101725.21;100220;1294;89560;-58
2022/11/30 03:56:03;;;;;;;27.30;17.20;;;;;;;1.18;81.07;101725.55;100253;1292;78951;-57
2022/11/30 03:58:33;;;;;;;29.80;18.90;;;;;;;1.21;80.97;101724.30;100246;1300;98030;-58
2022/11/30 04:01:12;;;;;;;35.00;21.20;;;;;;;1.24;80.93;101725.77;100228;1300;95288;-57
2022/11/30 04:03:47;;;;;;;35.50;20.60;;;;;;;1.25;80.96;101729.38;100256;1300;82411;-57
2022/11/30 04:06:19;;;;;;;31.10;18.30;;;;;;;1.21;80.87;101728.23;100262;1298;89334;-56
2022/11/30 04:08:50;;;;;;;31.10;19.40;;;;;;;1.22;80.73;101733.14;100207;1292;79027;-56
2022/11/30 04:11:25;;;;;;;29.90;18.90;;;;;;;1.23;80.70;101738.08;100231;1300;98565;-57
2022/11/30 04:13:56;;;;;;;27.20;18.60;;;;;;;1.20;80.69;101737.19;100237;1301;95601;-58
2022/11/30 04:16:27;;;;;;;28.00;17.00;;;;;;;1.15;80.58;101743.52;100239;1292;83341;-58
2022/11/30 04:19:05;;;;;;;26.70;16.80;;;;;;;1.09;80.56;101742.08;100213;1292;87797;-58
2022/11/30 04:21:34;;;;;;;28.60;17.40;;;;;;;1.07;80.62;101742.08;100241;1294;81362;-58
2022/11/30 04:24:09;;;;;;;28.50;17.40;;;;;;;1.08;80.68;101740.38;100210;1295;97884;-58
2022/11/30 04:26:41;;;;;;;25.50;16.10;;;;;;;1.09;80.74;101738.75;100251;1297;94287;-56
2022/11/30 04:29:15;;;;;;;26.60;16.60;;;;;;;1.09;80.72;101738.20;100311;1297;84496;-56
2022/11/30 04:31:44;;;;;;;26.90;16.60;;;;;;;1.14;80.74;101736.83;100260;1300;88843;-58
2022/11/30 04:34:14;;;;;;;27.90;17.10;;;;;;;1.17;80.82;101739.10;100164;1292;80487;-58
2022/11/30 04:36:47;;;;;;;28.90;18.80;;;;;;;1.19;80.80;101743.42;100265;1293;98719;-58
2022/11/30 04:39:18;;;;;;;26.30;16.50;;;;;;;1.23;80.68;101746.18;100294;1291;94610;-58
2022/11/30 04:41:47;;;;;;;28.90;17.40;;;;;;;1.24;80.84;101744.77;100330;1291;83940;-58
2022/11/30 04:44:21;;;;;;;29.30;17.50;;;;;;;1.26;80.74;101748.34;100323;1291;88450;-58
2022/11/30 04:46:53;;;;;;;26.00;17.30;;;;;;;1.27;80.60;101748.45;100303;1292;80470;-58
2022/11/30 04:49:23;;;;;;;30.30;19.20;;;;;;;1.24;80.51;101748.47;100324;1291;97128;-58
2022/11/30 04:51:55;;;;;;;32.20;19.00;;;;;;;1.26;80.73;101745.49;100292;1299;95227;-57
2022/11/30 04:54:26;;;;;;;26.40;18.10;;;;;;;1.26;80.53;101755.61;100333;1297;82423;-57
2022/11/30 04:56:57;;;;;;;27.60;18.00;;;;;;;1.19;80.51;101755.29;100124;1294;90564;-58
2022/11/30 04:59:31;;;;;;;31.40;18.70;;;;;;;1.17;80.68;101757.04;100300;1299;80845;-58
2022/11/30 05:02:03;;;;;;;28.20;17.40;;;;;;;1.19;80.47;101757.10;100303;1291;98448;-56
2022/11/30 05:04:34;;;;;;;29.20;17.70;;;;;;;1.19;80.67;101754.83;100277;1291;96428;-56
2022/11/30 05:07:08;;;;;;;27.10;16.60;;;;;;;1.19;80.64;101758.36;100359;1293;82093;-58
2022/11/30 05:09:38;;;;;;;28.40;17.00;;;;;;;1.18;80.54;101759.14;100333;1293;87445;-58
2022/11/30 05:12:11;;;;;;;27.60;17.50;;;;;;;1.20;80.69;101764.68;100367;1291;79741;-58
2022/11/30 05:14:43;;;;;;;24.90;15.50;;;;;;;1.26;80.65;101764.28;100287;1298;99029;-58
2022/11/30 05:17:17;;;;;;;25.10;15.90;;;;;;;1.25;80.74;101765.10;100332;1291;94207;-57
2022/11/30 05:19:46;;;;;;;22.30;15.60;;;;;;;1.30;80.59;101764.06;100360;1299;82624;-56
2022/11/30 05:22:19;;;;;;;27.10;17.50;;;;;;;1.34;80.53;101766.09;100329;1293;88888;-58
2022/11/30 05:24:48;;;;;;;26.70;16.30;;;;;;;1.36;80.53;101760.48;100167;1297;77716;-58
2022/11/30 05:27:18;;;;;;;22.80;15.10;;;;;;;1.36;80.45;101762.20;100318;1291;96534;-59
2022/11/30 05:29:50;;;;;;;25.20;16.10;;;;;;;1.30;80.61;101762.41;100273;1292;95530;-58
2022/11/30 05:32:21;;;;;;;25.60;16.60;;;;;;;1.32;80.41;101762.13;100270;1291;82095;-57
2022/11/30 05:34:50;;;;;;;24.60;15.30;;;;;;;1.32;80.26;101766.40;100260;1291;88412;-58
2022/11/30 05:37:20;;;;;;;26.60;16.40;;;;;;;1.25;80.43;101766.83;100295;1291;81107;-58
2022/11/30 05:39:51;;;;;;;25.30;15.80;;;;;;;1.25;80.26;101772.56;100304;1291;98236;-61
2022/11/30 05:42:22;;;;;;;26.60;17.10;;;;;;;1.19;80.23;101771.10;100305;1292;94099;-57
2022/11/30 05:44:52;;;;;;;24.20;15.60;;;;;;;1.22;80.25;101770.79;100305;1291;82923;-57
2022/11/30 05:47:25;;;;;;;24.60;15.20;;;;;;;1.21;80.36;101774.91;100309;1284;88198;-56
2022/11/30 05:49:57;;;;;;;25.80;16.00;;;;;;;1.19;80.36;101779.06;100326;1291;80903;-56
2022/11/30 05:52:28;;;;;;;24.50;16.20;;;;;;;1.27;80.30;101783.92;100349;1292;98261;-59
2022/11/30 05:54:58;;;;;;;24.90;15.90;;;;;;;1.31;80.32;101781.92;100288;1292;94106;-60
2022/11/30 05:57:27;;;;;;;23.80;16.60;;;;;;;1.33;80.48;101783.69;100339;1298;81272;-60
2022/11/30 05:59:57;;;;;;;25.80;16.70;;;;;;;1.36;80.52;101787.25;100318;1292;89642;-60
2022/11/30 06:02:29;;;;;;;23.90;16.30;;;;;;;1.39;80.44;101787.27;100354;1291;77344;-57
2022/11/30 06:05:01;;;;;;;23.60;15.50;;;;;;;1.42;80.18;101788.45;100349;1291;98050;-57
2022/11/30 06:07:33;;;;;;;25.30;16.40;;;;;;;1.38;80.16;101788.39;100315;1291;95268;-59
2022/11/30 06:10:04;;;;;;;24.90;15.40;;;;;;;1.38;80.10;101790.52;100360;1291;83154;-59
2022/11/30 06:12:32;;;;;;;31.60;18.80;;;;;;;1.34;80.11;101791.29;100323;1296;89002;-57
2022/11/30 06:15:08;;;;;;;30.50;18.70;;;;;;;1.28;80.29;101791.66;100330;1291;81008;-57
2022/11/30 06:17:42;;;;;;;26.00;16.20;;;;;;;1.27;80.30;101792.27;100288;1291;96959;-59
2022/11/30 06:20:13;;;;;;;;;;;;;;;1.26;80.23;101798.73;100285;1291;94464;-59
2022/11/30 06:22:44;;;;;;;36.50;20.00;;;;;;;1.26;80.43;101796.21;100338;1298;81819;-59
2022/11/30 06:25:17;;;;;;;24.80;14.90;;;;;;;1.26;80.33;101794.44;100286;1284;87268;-59
2022/11/30 06:27:49;;;;;;;32.10;19.00;;;;;;;1.29;80.32;101791.81;100341;1298;81642;-59
2022/11/30 06:30:19;;;;;;;27.20;15.90;;;;;;;1.31;80.37;101791.81;100305;1291;96858;-58
2022/11/30 06:32:51;;;;;;;23.70;16.20;;;;;;;1.32;80.19;101793.52;100321;1291;94991;-60
2022/11/30 06:35:27;;;;;;;26.00;15.50;;;;;;;1.32;80.19;101798.16;100330;1299;83195;-59
2022/11/30 06:37:59;;;;;;;23.00;15.30;;;;;;;1.31;80.19;101794.70;100318;1291;88136;-60
2022/11/30 06:40:28;;;;;;;26.40;16.60;;;;;;;1.31;80.31;101804.48;100323;1291;79015;-61
2022/11/30 06:43:00;;;;;;;23.40;15.60;;;;;;;1.28;80.09;101805.86;100307;1292;98708;-58
2022/11/30 06:45:31;;;;;;;25.50;17.00;;;;;;;1.24;80.00;101812.50;100333;1292;95126;-56
2022/11/30 06:48:01;;;;;;;23.90;16.00;;;;;;;1.20;80.13;101810.60;100335;1291;81869;-59
2022/11/30 06:50:33;;;;;;;22.90;15.50;;;;;;;1.22;80.04;101812.45;100356;1298;87139;-60
2022/11/30 06:53:02;;;;;;;25.20;16.40;;;;;;;1.15;80.16;101813.77;100341;1299;78996;-58
2022/11/30 06:55:34;;;;;;;23.10;16.10;;;;;;;1.16;80.20;101817.59;100328;1298;98813;-58
2022/11/30 06:58:11;;;;;;;23.60;15.90;;;;;;;1.18;80.24;101816.80;100321;1285;95119;-60
2022/11/30 07:00:42;;;;;;;23.50;16.10;;;;;;;1.20;80.16;101817.16;100334;1295;81138;-58
2022/11/30 07:03:12;;;;;;;23.50;14.30;;;;;;;1.23;80.43;101820.02;100326;1292;88811;-61
2022/11/30 07:05:47;;;;;;;22.70;14.40;;;;;;;1.26;80.36;101818.39;100165;1294;81695;-58
2022/11/30 07:08:21;;;;;;;25.20;16.30;;;;;;;1.30;80.35;101819.59;100309;1291;99502;-61
2022/11/30 07:10:51;;;;;;;24.70;17.00;;;;;;;1.31;80.32;101823.59;100288;1291;94578;-61
2022/11/30 07:13:21;;;;;;;27.40;17.00;;;;;;;1.32;80.48;101827.44;100288;1291;81654;-58
2022/11/30 07:15:58;;;;;;;26.40;17.60;;;;;;;1.35;80.27;101829.19;100287;1291;88017;-56
2022/11/30 07:18:28;;;;;;;25.10;16.80;;;;;;;1.35;80.28;101828.11;100361;1291;79523;-57
2022/11/30 07:21:02;;;;;;;21.50;13.70;;;;;;;1.35;80.31;101832.41;100280;1291;96261;-58
2022/11/30 07:26:28;;;;;;;26.30;18.30;;;;;;;1.22;80.38;101830.20;100344;1291;81391;-60
2022/11/30 07:29:01;;;;;;;25.20;16.20;;;;;;;1.29;80.39;101833.33;100338;1299;89769;-60
2022/11/30 07:31:37;;;;;;;25.30;15.20;;;;;;;1.34;80.29;101833.88;100332;1291;80878;-58
2022/11/30 07:34:11;;;;;;;25.40;17.10;;;;;;;1.35;80.28;101829.41;99951;1298;515615;-56
2022/11/30 07:36:45;;;;;;;29.00;17.00;;;;;;;1.41;80.27;101830.10;100285;1292;95208;-58
2022/11/30 07:39:18;;;;;;;25.40;16.90;;;;;;;1.42;80.40;101832.51;100336;1291;81112;-59
2022/11/30 07:41:53;;;;;;;25.90;17.00;;;;;;;1.42;80.34;101837.42;100338;1291;89711;-57
2022/11/30 07:44:24;;;;;;;26.30;16.50;;;;;;;1.45;80.33;101838.14;100304;1291;79550;-56
2022/11/30 07:46:54;;;;;;;25.20;15.70;;;;;;;1.45;80.05;101839.73;100318;1292;96725;-59
2022/11/30 07:49:26;;;;;;;23.60;16.10;;;;;;;1.42;80.14;101838.55;100314;1291;94770;-61
2022/11/30 07:52:03;;;;;;;25.30;15.60;;;;;;;1.42;79.89;101838.48;100347;1291;82834;-58
2022/11/30 07:54:34;;;;;;;26.40;16.00;;;;;;;1.37;79.83;101841.88;100318;1285;88312;-58
2022/11/30 07:57:06;;;;;;;27.30;15.90;;;;;;;1.33;80.08;101840.33;100309;1291;80971;-60
2022/11/30 07:59:41;;;;;;;26.10;15.70;;;;;;;1.34;80.03;101837.96;100299;1291;98937;-60
2022/11/30 08:02:13;;;;;;;25.60;16.10;;;;;;;1.34;79.97;101841.88;100342;1291;94408;-57
2022/11/30 08:04:43;;;;;;;24.90;16.00;;;;;;;1.37;80.18;101840.27;100355;1285;83403;-57
2022/11/30 08:07:16;;;;;;;23.90;16.40;;;;;;;1.43;80.30;101835.27;100331;1288;88315;-59
2022/11/30 08:09:49;;;;;;;25.10;16.60;;;;;;;1.47;80.20;101841.02;100354;1291;76657;-60
2022/11/30 08:12:19;;;;;;;24.80;16.30;;;;;;;1.47;79.99;101839.96;100279;1294;98574;-58
2022/11/30 08:14:54;;;;;;;26.90;17.30;;;;;;;1.48;80.29;101837.92;100316;1298;96216;-57
2022/11/30 08:17:25;;;;;;;29.50;18.00;;;;;;;1.46;80.17;101836.51;100334;1291;83320;-59
2022/11/30 08:20:04;;;;;;;21.80;14.00;;;;;;;1.46;80.23;101837.54;100330;1299;88054;-59
2022/11/30 08:22:39;;;;;;;25.70;15.80;;;;;;;1.39;80.02;101839.77;100297;1291;80075;-56
2022/11/30 08:25:10;;;;;;;26.90;17.20;;;;;;;1.38;80.18;101841.48;100318;1291;99620;-57
2022/11/30 08:27:44;;;;;;;25.20;16.80;;;;;;;1.39;80.23;101842.99;100287;1301;93892;-60
2022/11/30 08:30:19;;;;;;;25.70;16.40;;;;;;;1.39;80.16;101842.06;100302;1291;81813;-60
2022/11/30 08:32:48;;;;;;;27.90;16.90;;;;;;;1.37;80.32;101844.16;100303;1291;88638;-57
2022/11/30 08:35:19;;;;;;;25.80;16.40;;;;;;;1.43;80.33;101845.15;100312;1297;80976;-57
2022/11/30 08:37:51;;;;;;;26.10;16.20;;;;;;;1.46;80.33;101845.88;100346;1298;98725;-60
2022/11/30 08:40:24;;;;;;;24.60;17.10;;;;;;;1.48;80.43;101847.04;100287;1292;94425;-60
2022/11/30 08:43:00;;;;;;;25.80;16.30;;;;;;;1.54;80.45;101848.03;100363;1291;82405;-59
2022/11/30 08:45:32;;;;;;;24.20;16.10;;;;;;;1.59;80.56;101845.40;100357;1291;87745;-59
2022/11/30 08:48:05;;;;;;;25.10;16.00;;;;;;;1.57;80.53;101847.30;100365;1292;78742;-60
2022/11/30 08:50:35;;;;;;;27.70;17.40;;;;;;;1.59;80.59;101850.92;100371;1291;98531;-59
2022/11/30 08:53:06;;;;;;;25.50;16.50;;;;;;;1.57;80.48;101848.20;100229;1294;95497;-55
2022/11/30 08:55:36;;;;;;;25.90;17.50;;;;;;;1.51;80.14;101853.39;100346;1292;83000;-54
2022/11/30 08:58:08;;;;;;;25.70;16.80;;;;;;;1.45;80.29;101852.20;100339;1291;88418;-59
2022/11/30 09:00:43;;;;;;;24.80;16.20;;;;;;;1.44;80.34;101852.43;100332;1285;80477;-61
2022/11/30 09:03:15;;;;;;;27.50;17.40;;;;;;;1.44;80.49;101848.20;100357;1292;97462;-60
2022/11/30 09:05:46;;;;;;;27.50;16.00;;;;;;;1.45;80.40;101846.85;100330;1291;93869;-63
2022/11/30 09:08:19;;;;;;;24.20;15.50;;;;;;;1.46;80.46;101850.48;100349;1299;81299;-61
2022/11/30 09:10:59;;;;;;;28.30;16.60;;;;;;;1.49;80.42;101849.98;100339;1299;89281;-60
2022/11/30 09:13:29;;;;;;;26.60;16.30;;;;;;;1.49;80.74;101849.92;100278;1299;78930;-58
2022/11/30 09:16:03;;;;;;;28.40;16.90;;;;;;;1.51;80.77;101852.29;100335;1291;95864;-61
2022/11/30 09:18:33;;;;;;;27.10;17.40;;;;;;;1.53;80.73;101849.71;100355;1292;93377;-59
2022/11/30 09:21:12;;;;;;;26.60;16.50;;;;;;;1.62;80.53;101851.08;100353;1291;80339;-59
2022/11/30 09:23:48;;;;;;;24.70;16.20;;;;;;;1.67;80.79;101853.61;100165;1295;90313;-60
2022/11/30 09:26:24;;;;;;;24.60;15.60;;;;;;;1.61;80.58;101857.91;100280;1293;82375;-58
2022/11/30 09:28:55;;;;;;;24.40;16.00;;;;;;;1.56;80.65;101854.81;100344;1291;98910;-58
2022/11/30 09:31:26;;;;;;;24.50;15.50;;;;;;;1.54;80.66;101855.12;100339;1291;94483;-58
2022/11/30 09:34:00;;;;;;;26.40;16.70;;;;;;;1.55;80.64;101856.31;100249;1294;81731;-57
2022/11/30 09:36:33;;;;;;;25.90;15.30;;;;;;;1.58;80.62;101857.90;100388;1292;88095;-57
2022/11/30 09:39:02;;;;;;;24.20;15.40;;;;;;;1.56;80.64;101856.25;100330;1291;81124;-58
2022/11/30 09:42:15;;;;;;;22.40;14.60;;;;;;;1.55;80.88;101856.67;100359;1284;99297;-57
2022/11/30 09:45:03;;;;;;;23.90;15.50;;;;;;;1.53;80.68;101856.64;100323;1297;92927;-57
2022/11/30 09:47:57;;;;;;;26.70;16.80;;;;;;;1.55;80.84;101857.73;100326;1298;83161;-57
2022/11/30 09:50:38;;;;;;;26.40;16.10;;;;;;;1.53;81.05;101860.71;100297;1299;89091;-57
2022/11/30 09:53:16;;;;;;;23.10;16.50;;;;;;;1.56;80.89;101858.77;100164;1287;81599;-57
2022/11/30 09:55:48;;;;;;;24.70;16.40;;;;;;;1.61;80.97;101855.77;100303;1291;98658;-57
2022/11/30 09:58:30;;;;;;;27.20;17.30;;;;;;;1.63;80.82;101859.71;100162;1294;95257;-57
2022/11/30 10:01:14;;;;;;;26.20;17.40;;;;;;;1.62;80.74;101859.22;100320;1291;80280;-58
2022/11/30 10:03:48;;;;;;;26.00;16.00;;;;;;;1.60;80.65;101857.77;100291;1291;89168;-56
2022/11/30 10:06:26;;;;;;;39.20;21.60;;;;;;;1.54;80.79;101856.89;100324;1295;79747;-58
2022/11/30 10:09:36;;;;;;;26.60;17.90;;;;;;;1.52;80.71;101854.59;100296;1292;99056;-57
2022/11/30 10:12:11;;;;;;;25.80;16.60;;;;;;;1.48;80.83;101856.42;100308;1299;94691;-57
2022/11/30 10:15:28;;;;;;;27.00;16.80;;;;;;;1.47;81.02;101855.08;100317;1298;82882;-57
2022/11/30 10:18:08;;;;;;;26.30;17.60;;;;;;;1.51;81.04;101855.54;100313;1297;87804;-59
2022/11/30 10:20:59;;;;;;;25.00;15.40;;;;;;;1.54;81.07;101856.20;100283;1297;80177;-59
2022/11/30 10:23:58;;;;;;;25.50;16.10;;;;;;;1.52;81.11;101851.56;100339;1288;98915;-60
2022/11/30 10:26:37;;;;;;;24.70;16.70;;;;;;;1.57;81.28;101851.77;100362;1289;95160;-59
2022/11/30 10:29:18;;;;;;;22.70;15.00;;;;;;;1.61;81.25;101849.58;100318;1299;80929;-60
2022/11/30 10:31:52;;;;;;;24.20;15.60;;;;;;;1.62;81.08;101851.06;100357;1291;88669;-57
2022/11/30 10:34:31;;;;;;;22.60;14.50;;;;;;;1.67;81.00;101848.27;100323;1291;80927;-55
2022/11/30 10:37:11;;;;;;;22.80;15.20;;;;;;;1.68;80.99;101848.89;100368;1291;99526;-56
2022/11/30 10:39:46;;;;;;;16.70;11.50;;;;;;;1.69;80.87;101850.98;100328;1291;94426;-56
2022/11/30 10:42:25;;;;;;;20.60;12.30;;;;;;;1.70;80.95;101851.09;100322;1291;83819;-55
2022/11/30 10:45:03;;;;;;;18.50;12.10;;;;;;;1.73;80.85;101846.13;100339;1291;89323;-56
2022/11/30 10:47:41;;;;;;;18.00;11.80;;;;;;;1.67;81.00;101848.95;100331;1299;79709;-58
2022/11/30 10:50:20;;;;;;;18.90;12.50;;;;;;;1.62;80.96;101841.66;100313;1293;98794;-57
2022/11/30 10:52:54;;;;;;;21.60;13.40;;;;;;;1.61;80.95;101842.09;100319;1296;95607;-57
2022/11/30 10:55:26;;;;;;;22.40;13.90;;;;;;;1.65;81.02;101840.59;100326;1292;83186;-58
2022/11/30 10:58:03;;;;;;;20.80;13.30;;;;;;;1.65;81.02;101840.39;100192;1300;88646;-58
2022/11/30 11:00:36;;;;;;;19.50;12.60;;;;;;;1.63;81.32;101843.23;100341;1291;81547;-56
2022/11/30 11:03:26;;;;;;;22.20;13.50;;;;;;;1.66;81.27;101843.05;100380;1291;98969;-57
2022/11/30 11:10:50;;;;;;;17.80;11.70;;;;;;;1.80;81.25;101828.08;100385;1269;80046;-57
2022/11/30 11:13:38;;;;;;;22.40;13.90;;;;;;;1.88;81.18;101831.88;100222;1294;89057;-57
2022/11/30 11:16:12;;;;;;;18.30;12.00;;;;;;;1.88;81.22;101829.91;100237;1294;81095;-58
2022/11/30 11:18:57;;;;;;;19.60;12.30;;;;;;;1.89;81.40;101832.48;100203;1295;99096;-59
2022/11/30 11:21:27;;;;;;;19.60;12.30;;;;;;;1.96;81.16;101832.76;100223;1294;95745;-57
2022/11/30 11:23:59;;;;;;;17.90;11.60;;;;;;;1.92;81.15;101834.46;100200;1293;81304;-57
2022/11/30 11:26:30;;;;;;;17.90;11.70;;;;;;;1.90;80.88;101837.73;100206;1301;88676;-57
2022/11/30 11:29:01;;;;;;;19.90;12.60;;;;;;;1.86;80.84;101832.52;100213;1300;78941;-57
2022/11/30 11:31:41;;;;;;;19.80;12.30;;;;;;;1.80;80.91;101835.77;100210;1294;98747;-57
2022/11/30 11:34:32;;;;;;;24.30;12.30;;;;;;;1.78;80.98;101830.69;100209;1288;95694;-57
2022/11/30 11:37:22;;;;;;;17.50;11.80;;;;;;;1.73;80.95;101841.84;100223;1294;83032;-57
2022/11/30 11:40:13;;;;;;;16.30;10.70;;;;;;;1.67;81.12;101833.50;100163;1287;85845;-57
2022/11/30 11:42:53;;;;;;;20.60;12.20;;;;;;;1.63;81.18;101835.27;100213;1294;81240;-57
2022/11/30 11:45:26;;;;;;;20.00;12.40;;;;;;;1.63;81.35;101831.83;100245;1300;96552;-57
2022/11/30 11:48:03;;;;;;;18.40;11.20;;;;;;;1.68;81.34;101831.89;100213;1293;93895;-57
2022/11/30 11:50:35;;;;;;;19.20;12.20;;;;;;;1.72;81.51;101835.55;100236;1294;82926;-57